sensor_id;sensor_type;location;lat;lon;timestamp;P1;durP1;ratioP1;P2;durP2;ratioP2
78402;SDS011;67687;43.508;1.504;2024-03-22T00:02:13;15.82;;;8.65;;
78402;SDS011;67687;43.508;1.504;2024-03-22T00:04:39;17.97;;;9.30;;
78402;SDS011;67687;43.508;1.504;2024-03-22T00:07:06;16.85;;;8.57;;
78402;SDS011;67687;43.508;1.504;2024-03-22T00:09:31;17.63;;;8.75;;
78402;SDS011;67687;43.508;1.504;2024-03-22T00:11:58;16.47;;;8.23;;
78402;SDS011;67687;43.508;1.504;2024-03-22T00:14:25;16.52;;;7.90;;
78402;SDS011;67687;43.508;1.504;2024-03-22T00:16:52;17.08;;;8.57;;
78402;SDS011;67687;43.508;1.504;2024-03-22T00:19:18;17.87;;;8.97;;
78402;SDS011;67687;43.508;1.504;2024-03-22T00:21:44;13.32;;;8.13;;
78402;SDS011;67687;43.508;1.504;2024-03-22T00:24:10;15.45;;;8.10;;
78402;SDS011;67687;43.508;1.504;2024-03-22T00:26:37;15.93;;;8.27;;
78402;SDS011;67687;43.508;1.504;2024-03-22T00:29:02;11.73;;;7.85;;
78402;SDS011;67687;43.508;1.504;2024-03-22T00:31:30;16.92;;;8.80;;
78402;SDS011;67687;43.508;1.504;2024-03-22T00:33:56;17.30;;;8.53;;
78402;SDS011;67687;43.508;1.504;2024-03-22T00:36:23;17.08;;;8.63;;
78402;SDS011;67687;43.508;1.504;2024-03-22T00:38:49;16.75;;;8.38;;
78402;SDS011;67687;43.508;1.504;2024-03-22T00:41:15;17.20;;;8.45;;
78402;SDS011;67687;43.508;1.504;2024-03-22T00:43:41;17.47;;;8.27;;
78402;SDS011;67687;43.508;1.504;2024-03-22T00:46:08;16.95;;;7.72;;
78402;SDS011;67687;43.508;1.504;2024-03-22T00:48:35;19.07;;;7.97;;
78402;SDS011;67687;43.508;1.504;2024-03-22T00:51:01;19.13;;;8.05;;
78402;SDS011;67687;43.508;1.504;2024-03-22T00:53:27;17.27;;;8.45;;
78402;SDS011;67687;43.508;1.504;2024-03-22T00:55:55;15.75;;;8.00;;
78402;SDS011;67687;43.508;1.504;2024-03-22T00:58:21;15.00;;;7.43;;
78402;SDS011;67687;43.508;1.504;2024-03-22T01:00:47;17.58;;;7.57;;
78402;SDS011;67687;43.508;1.504;2024-03-22T01:03:13;17.02;;;7.70;;
78402;SDS011;67687;43.508;1.504;2024-03-22T01:05:42;16.27;;;7.80;;
78402;SDS011;67687;43.508;1.504;2024-03-22T01:08:09;15.37;;;7.50;;
78402;SDS011;67687;43.508;1.504;2024-03-22T01:10:36;14.52;;;7.30;;
78402;SDS011;67687;43.508;1.504;2024-03-22T01:13:01;15.27;;;7.72;;
78402;SDS011;67687;43.508;1.504;2024-03-22T01:15:28;17.37;;;7.93;;
78402;SDS011;67687;43.508;1.504;2024-03-22T01:17:55;16.55;;;7.47;;
78402;SDS011;67687;43.508;1.504;2024-03-22T01:20:21;17.25;;;7.85;;
78402;SDS011;67687;43.508;1.504;2024-03-22T01:22:48;17.40;;;8.90;;
78402;SDS011;67687;43.508;1.504;2024-03-22T01:25:15;16.85;;;7.70;;
78402;SDS011;67687;43.508;1.504;2024-03-22T01:27:41;14.80;;;7.47;;
78402;SDS011;67687;43.508;1.504;2024-03-22T01:30:08;15.77;;;8.00;;
78402;SDS011;67687;43.508;1.504;2024-03-22T01:32:34;18.98;;;8.60;;
78402;SDS011;67687;43.508;1.504;2024-03-22T01:35:01;17.48;;;8.73;;
78402;SDS011;67687;43.508;1.504;2024-03-22T01:37:27;16.63;;;7.80;;
78402;SDS011;67687;43.508;1.504;2024-03-22T01:39:55;19.10;;;8.60;;
78402;SDS011;67687;43.508;1.504;2024-03-22T01:42:21;19.45;;;9.23;;
78402;SDS011;67687;43.508;1.504;2024-03-22T01:44:48;15.70;;;8.10;;
78402;SDS011;67687;43.508;1.504;2024-03-22T01:47:14;13.30;;;8.35;;
78402;SDS011;67687;43.508;1.504;2024-03-22T01:49:41;16.85;;;7.40;;
78402;SDS011;67687;43.508;1.504;2024-03-22T01:52:07;17.40;;;8.23;;
78402;SDS011;67687;43.508;1.504;2024-03-22T01:54:34;17.13;;;7.68;;
78402;SDS011;67687;43.508;1.504;2024-03-22T01:57:01;14.53;;;7.70;;
78402;SDS011;67687;43.508;1.504;2024-03-22T01:59:28;15.73;;;7.70;;
78402;SDS011;67687;43.508;1.504;2024-03-22T02:01:54;14.43;;;7.70;;
78402;SDS011;67687;43.508;1.504;2024-03-22T02:04:20;15.43;;;7.53;;
78402;SDS011;67687;43.508;1.504;2024-03-22T02:06:46;15.68;;;7.82;;
78402;SDS011;67687;43.508;1.504;2024-03-22T02:09:13;17.27;;;8.17;;
78402;SDS011;67687;43.508;1.504;2024-03-22T02:11:40;18.70;;;8.38;;
78402;SDS011;67687;43.508;1.504;2024-03-22T02:14:08;19.80;;;8.48;;
78402;SDS011;67687;43.508;1.504;2024-03-22T02:16:34;18.10;;;8.18;;
78402;SDS011;67687;43.508;1.504;2024-03-22T02:19:00;16.05;;;7.90;;
78402;SDS011;67687;43.508;1.504;2024-03-22T02:21:26;20.60;;;8.10;;
78402;SDS011;67687;43.508;1.504;2024-03-22T02:23:54;17.25;;;7.80;;
78402;SDS011;67687;43.508;1.504;2024-03-22T02:26:20;14.50;;;8.10;;
78402;SDS011;67687;43.508;1.504;2024-03-22T02:28:46;14.13;;;7.40;;
78402;SDS011;67687;43.508;1.504;2024-03-22T02:31:12;14.55;;;7.82;;
78402;SDS011;67687;43.508;1.504;2024-03-22T02:33:39;14.90;;;7.45;;
78402;SDS011;67687;43.508;1.504;2024-03-22T02:36:05;16.30;;;7.47;;
78402;SDS011;67687;43.508;1.504;2024-03-22T02:38:31;16.00;;;6.50;;
78402;SDS011;67687;43.508;1.504;2024-03-22T02:40:59;14.60;;;6.78;;
78402;SDS011;67687;43.508;1.504;2024-03-22T02:43:25;17.97;;;7.50;;
78402;SDS011;67687;43.508;1.504;2024-03-22T02:45:51;14.32;;;6.95;;
78402;SDS011;67687;43.508;1.504;2024-03-22T02:48:18;16.75;;;7.22;;
78402;SDS011;67687;43.508;1.504;2024-03-22T02:50:43;16.23;;;7.67;;
78402;SDS011;67687;43.508;1.504;2024-03-22T02:53:10;16.95;;;7.72;;
78402;SDS011;67687;43.508;1.504;2024-03-22T02:55:36;12.77;;;7.30;;
78402;SDS011;67687;43.508;1.504;2024-03-22T02:58:05;13.75;;;7.65;;
78402;SDS011;67687;43.508;1.504;2024-03-22T03:00:30;15.88;;;8.13;;
78402;SDS011;67687;43.508;1.504;2024-03-22T03:02:57;15.27;;;7.13;;
78402;SDS011;67687;43.508;1.504;2024-03-22T03:05:23;16.42;;;8.38;;
78402;SDS011;67687;43.508;1.504;2024-03-22T03:07:50;16.10;;;7.67;;
78402;SDS011;67687;43.508;1.504;2024-03-22T03:10:16;15.25;;;7.53;;
78402;SDS011;67687;43.508;1.504;2024-03-22T03:12:43;18.85;;;9.07;;
78402;SDS011;67687;43.508;1.504;2024-03-22T03:15:10;17.73;;;8.30;;
78402;SDS011;67687;43.508;1.504;2024-03-22T03:17:36;15.60;;;8.05;;
78402;SDS011;67687;43.508;1.504;2024-03-22T03:20:02;16.93;;;7.67;;
78402;SDS011;67687;43.508;1.504;2024-03-22T03:22:32;16.57;;;7.93;;
78402;SDS011;67687;43.508;1.504;2024-03-22T03:24:58;14.18;;;7.65;;
78402;SDS011;67687;43.508;1.504;2024-03-22T03:27:25;16.33;;;7.70;;
78402;SDS011;67687;43.508;1.504;2024-03-22T03:29:51;15.70;;;8.07;;
78402;SDS011;67687;43.508;1.504;2024-03-22T03:32:19;13.63;;;6.93;;
78402;SDS011;67687;43.508;1.504;2024-03-22T03:34:44;17.33;;;7.45;;
78402;SDS011;67687;43.508;1.504;2024-03-22T03:37:11;14.82;;;7.38;;
78402;SDS011;67687;43.508;1.504;2024-03-22T03:39:36;16.90;;;7.23;;
78402;SDS011;67687;43.508;1.504;2024-03-22T03:42:03;15.95;;;7.30;;
78402;SDS011;67687;43.508;1.504;2024-03-22T03:44:29;16.45;;;7.50;;
78402;SDS011;67687;43.508;1.504;2024-03-22T03:46:56;14.80;;;7.70;;
78402;SDS011;67687;43.508;1.504;2024-03-22T03:49:23;17.20;;;8.02;;
78402;SDS011;67687;43.508;1.504;2024-03-22T03:51:49;17.80;;;7.63;;
78402;SDS011;67687;43.508;1.504;2024-03-22T03:54:15;16.83;;;7.80;;
78402;SDS011;67687;43.508;1.504;2024-03-22T03:56:42;13.75;;;7.10;;
78402;SDS011;67687;43.508;1.504;2024-03-22T03:59:07;13.57;;;7.13;;
78402;SDS011;67687;43.508;1.504;2024-03-22T04:01:34;17.27;;;7.80;;
78402;SDS011;67687;43.508;1.504;2024-03-22T04:04:00;21.17;;;8.38;;
78402;SDS011;67687;43.508;1.504;2024-03-22T04:06:28;17.60;;;7.60;;
78402;SDS011;67687;43.508;1.504;2024-03-22T04:08:54;15.98;;;7.85;;
78402;SDS011;67687;43.508;1.504;2024-03-22T04:11:20;15.15;;;7.60;;
78402;SDS011;67687;43.508;1.504;2024-03-22T04:13:46;17.33;;;8.00;;
78402;SDS011;67687;43.508;1.504;2024-03-22T04:16:13;13.90;;;7.25;;
78402;SDS011;67687;43.508;1.504;2024-03-22T04:18:39;14.60;;;7.17;;
78402;SDS011;67687;43.508;1.504;2024-03-22T04:21:06;16.15;;;7.32;;
78402;SDS011;67687;43.508;1.504;2024-03-22T04:23:33;15.32;;;7.22;;
78402;SDS011;67687;43.508;1.504;2024-03-22T04:26:00;13.97;;;7.00;;
78402;SDS011;67687;43.508;1.504;2024-03-22T04:28:26;15.05;;;7.45;;
78402;SDS011;67687;43.508;1.504;2024-03-22T04:30:56;18.67;;;7.45;;
78402;SDS011;67687;43.508;1.504;2024-03-22T04:33:23;14.52;;;7.80;;
78402;SDS011;67687;43.508;1.504;2024-03-22T04:35:50;15.30;;;7.47;;
78402;SDS011;67687;43.508;1.504;2024-03-22T04:38:16;13.77;;;6.80;;
78402;SDS011;67687;43.508;1.504;2024-03-22T04:40:44;13.35;;;7.07;;
78402;SDS011;67687;43.508;1.504;2024-03-22T04:43:11;15.43;;;7.13;;
78402;SDS011;67687;43.508;1.504;2024-03-22T04:45:38;16.10;;;7.20;;
78402;SDS011;67687;43.508;1.504;2024-03-22T04:48:04;15.30;;;7.40;;
78402;SDS011;67687;43.508;1.504;2024-03-22T04:50:31;12.95;;;7.47;;
78402;SDS011;67687;43.508;1.504;2024-03-22T04:52:57;16.92;;;7.75;;
78402;SDS011;67687;43.508;1.504;2024-03-22T04:55:23;15.80;;;7.53;;
78402;SDS011;67687;43.508;1.504;2024-03-22T04:57:51;18.02;;;7.28;;
78402;SDS011;67687;43.508;1.504;2024-03-22T05:00:17;17.77;;;8.93;;
78402;SDS011;67687;43.508;1.504;2024-03-22T05:02:43;18.43;;;8.70;;
78402;SDS011;67687;43.508;1.504;2024-03-22T05:05:10;19.77;;;9.63;;
78402;SDS011;67687;43.508;1.504;2024-03-22T05:07:36;21.55;;;10.05;;
78402;SDS011;67687;43.508;1.504;2024-03-22T05:10:03;19.90;;;10.38;;
78402;SDS011;67687;43.508;1.504;2024-03-22T05:12:29;22.15;;;10.35;;
78402;SDS011;67687;43.508;1.504;2024-03-22T05:14:57;21.63;;;9.50;;
78402;SDS011;67687;43.508;1.504;2024-03-22T05:17:23;21.48;;;10.15;;
78402;SDS011;67687;43.508;1.504;2024-03-22T05:19:50;22.63;;;9.90;;
78402;SDS011;67687;43.508;1.504;2024-03-22T05:22:15;21.67;;;10.40;;
78402;SDS011;67687;43.508;1.504;2024-03-22T05:24:42;19.33;;;9.40;;
78402;SDS011;67687;43.508;1.504;2024-03-22T05:27:08;17.52;;;9.35;;
78402;SDS011;67687;43.508;1.504;2024-03-22T05:29:35;19.63;;;9.43;;
78402;SDS011;67687;43.508;1.504;2024-03-22T05:32:02;17.17;;;8.80;;
78402;SDS011;67687;43.508;1.504;2024-03-22T05:34:28;18.30;;;8.80;;
78402;SDS011;67687;43.508;1.504;2024-03-22T05:36:54;23.45;;;9.35;;
78402;SDS011;67687;43.508;1.504;2024-03-22T05:39:21;22.30;;;8.53;;
78402;SDS011;67687;43.508;1.504;2024-03-22T05:41:46;20.23;;;8.55;;
78402;SDS011;67687;43.508;1.504;2024-03-22T05:44:13;19.65;;;8.55;;
78402;SDS011;67687;43.508;1.504;2024-03-22T05:46:39;15.03;;;8.00;;
78402;SDS011;67687;43.508;1.504;2024-03-22T05:49:07;18.35;;;8.40;;
78402;SDS011;67687;43.508;1.504;2024-03-22T05:51:33;19.73;;;9.02;;
78402;SDS011;67687;43.508;1.504;2024-03-22T05:53:59;22.27;;;8.98;;
78402;SDS011;67687;43.508;1.504;2024-03-22T05:56:25;22.53;;;8.77;;
78402;SDS011;67687;43.508;1.504;2024-03-22T05:58:52;22.50;;;9.73;;
78402;SDS011;67687;43.508;1.504;2024-03-22T06:01:17;23.80;;;9.60;;
78402;SDS011;67687;43.508;1.504;2024-03-22T06:03:44;21.98;;;10.23;;
78402;SDS011;67687;43.508;1.504;2024-03-22T06:06:11;13.57;;;7.93;;
78402;SDS011;67687;43.508;1.504;2024-03-22T06:08:38;14.67;;;7.20;;
78402;SDS011;67687;43.508;1.504;2024-03-22T06:11:05;14.45;;;7.35;;
78402;SDS011;67687;43.508;1.504;2024-03-22T06:13:33;16.05;;;7.82;;
78402;SDS011;67687;43.508;1.504;2024-03-22T06:16:00;18.20;;;7.30;;
78402;SDS011;67687;43.508;1.504;2024-03-22T06:18:27;18.35;;;8.15;;
78402;SDS011;67687;43.508;1.504;2024-03-22T06:20:52;13.30;;;7.87;;
78402;SDS011;67687;43.508;1.504;2024-03-22T06:23:21;18.05;;;8.95;;
78402;SDS011;67687;43.508;1.504;2024-03-22T06:25:50;17.75;;;7.93;;
78402;SDS011;67687;43.508;1.504;2024-03-22T06:28:17;16.00;;;8.93;;
78402;SDS011;67687;43.508;1.504;2024-03-22T06:30:43;14.13;;;7.33;;
78402;SDS011;67687;43.508;1.504;2024-03-22T06:33:10;17.17;;;7.03;;
78402;SDS011;67687;43.508;1.504;2024-03-22T06:35:35;15.00;;;8.50;;
78402;SDS011;67687;43.508;1.504;2024-03-22T06:38:02;16.60;;;8.52;;
78402;SDS011;67687;43.508;1.504;2024-03-22T06:40:30;16.52;;;7.70;;
78402;SDS011;67687;43.508;1.504;2024-03-22T06:42:57;14.63;;;7.78;;
78402;SDS011;67687;43.508;1.504;2024-03-22T06:45:23;15.63;;;7.40;;
78402;SDS011;67687;43.508;1.504;2024-03-22T06:47:50;19.07;;;9.50;;
78402;SDS011;67687;43.508;1.504;2024-03-22T06:50:16;18.33;;;7.68;;
78402;SDS011;67687;43.508;1.504;2024-03-22T06:52:43;16.17;;;8.27;;
78402;SDS011;67687;43.508;1.504;2024-03-22T06:55:08;16.60;;;8.00;;
78402;SDS011;67687;43.508;1.504;2024-03-22T06:57:36;14.65;;;7.47;;
78402;SDS011;67687;43.508;1.504;2024-03-22T07:00:02;14.07;;;7.55;;
78402;SDS011;67687;43.508;1.504;2024-03-22T07:02:30;17.73;;;8.07;;
78402;SDS011;67687;43.508;1.504;2024-03-22T07:04:55;13.43;;;7.83;;
78402;SDS011;67687;43.508;1.504;2024-03-22T07:07:22;14.13;;;7.00;;
78402;SDS011;67687;43.508;1.504;2024-03-22T07:09:48;15.40;;;7.40;;
78402;SDS011;67687;43.508;1.504;2024-03-22T07:12:14;15.10;;;7.60;;
78402;SDS011;67687;43.508;1.504;2024-03-22T07:14:41;14.63;;;8.13;;
78402;SDS011;67687;43.508;1.504;2024-03-22T07:17:08;16.50;;;8.52;;
78402;SDS011;67687;43.508;1.504;2024-03-22T07:19:34;16.90;;;8.30;;
78402;SDS011;67687;43.508;1.504;2024-03-22T07:22:00;12.68;;;7.15;;
78402;SDS011;67687;43.508;1.504;2024-03-22T07:24:26;17.67;;;7.63;;
78402;SDS011;67687;43.508;1.504;2024-03-22T07:26:53;17.30;;;7.30;;
78402;SDS011;67687;43.508;1.504;2024-03-22T07:29:19;14.27;;;7.80;;
78402;SDS011;67687;43.508;1.504;2024-03-22T07:31:47;16.30;;;7.90;;
78402;SDS011;67687;43.508;1.504;2024-03-22T07:34:13;13.73;;;8.18;;
78402;SDS011;67687;43.508;1.504;2024-03-22T07:36:39;14.70;;;8.13;;
78402;SDS011;67687;43.508;1.504;2024-03-22T07:39:05;15.53;;;8.70;;
78402;SDS011;67687;43.508;1.504;2024-03-22T07:41:32;15.10;;;8.18;;
78402;SDS011;67687;43.508;1.504;2024-03-22T07:43:58;17.85;;;8.73;;
78402;SDS011;67687;43.508;1.504;2024-03-22T07:46:25;16.97;;;8.40;;
78402;SDS011;67687;43.508;1.504;2024-03-22T07:48:53;14.30;;;8.63;;
78402;SDS011;67687;43.508;1.504;2024-03-22T07:51:19;15.77;;;8.05;;
78402;SDS011;67687;43.508;1.504;2024-03-22T07:53:45;16.83;;;8.00;;
78402;SDS011;67687;43.508;1.504;2024-03-22T07:56:12;18.07;;;9.00;;
78402;SDS011;67687;43.508;1.504;2024-03-22T07:58:38;15.63;;;9.20;;
78402;SDS011;67687;43.508;1.504;2024-03-22T08:01:04;16.83;;;8.93;;
78402;SDS011;67687;43.508;1.504;2024-03-22T08:03:30;17.47;;;9.40;;
78402;SDS011;67687;43.508;1.504;2024-03-22T08:05:58;17.63;;;9.40;;
78402;SDS011;67687;43.508;1.504;2024-03-22T08:08:24;16.30;;;8.80;;
78402;SDS011;67687;43.508;1.504;2024-03-22T08:10:51;16.25;;;8.85;;
78402;SDS011;67687;43.508;1.504;2024-03-22T08:13:16;14.43;;;8.77;;
78402;SDS011;67687;43.508;1.504;2024-03-22T08:15:43;15.90;;;8.18;;
78402;SDS011;67687;43.508;1.504;2024-03-22T08:18:10;18.45;;;8.80;;
78402;SDS011;67687;43.508;1.504;2024-03-22T08:20:38;16.80;;;8.27;;
78402;SDS011;67687;43.508;1.504;2024-03-22T08:23:05;16.85;;;8.57;;
78402;SDS011;67687;43.508;1.504;2024-03-22T08:25:32;16.97;;;8.93;;
78402;SDS011;67687;43.508;1.504;2024-03-22T08:27:58;18.92;;;8.15;;
78402;SDS011;67687;43.508;1.504;2024-03-22T08:30:25;18.30;;;8.10;;
78402;SDS011;67687;43.508;1.504;2024-03-22T08:32:51;16.63;;;8.13;;
78402;SDS011;67687;43.508;1.504;2024-03-22T08:35:18;20.45;;;8.68;;
78402;SDS011;67687;43.508;1.504;2024-03-22T08:37:44;14.27;;;7.72;;
78402;SDS011;67687;43.508;1.504;2024-03-22T08:40:12;16.20;;;8.25;;
78402;SDS011;67687;43.508;1.504;2024-03-22T08:42:39;12.82;;;8.30;;
78402;SDS011;67687;43.508;1.504;2024-03-22T08:45:07;15.50;;;8.23;;
78402;SDS011;67687;43.508;1.504;2024-03-22T08:47:33;19.08;;;7.82;;
78402;SDS011;67687;43.508;1.504;2024-03-22T08:50:00;12.55;;;7.15;;
78402;SDS011;67687;43.508;1.504;2024-03-22T08:52:26;15.60;;;7.77;;
78402;SDS011;67687;43.508;1.504;2024-03-22T08:54:52;14.67;;;7.47;;
78402;SDS011;67687;43.508;1.504;2024-03-22T08:57:20;18.90;;;9.20;;
78402;SDS011;67687;43.508;1.504;2024-03-22T08:59:47;17.95;;;9.55;;
78402;SDS011;67687;43.508;1.504;2024-03-22T09:02:13;16.97;;;9.60;;
78402;SDS011;67687;43.508;1.504;2024-03-22T09:04:39;14.97;;;8.07;;
78402;SDS011;67687;43.508;1.504;2024-03-22T09:07:06;19.08;;;8.25;;
78402;SDS011;67687;43.508;1.504;2024-03-22T09:09:33;15.23;;;7.00;;
78402;SDS011;67687;43.508;1.504;2024-03-22T09:11:59;15.37;;;7.60;;
78402;SDS011;67687;43.508;1.504;2024-03-22T09:14:27;15.15;;;7.65;;
78402;SDS011;67687;43.508;1.504;2024-03-22T09:16:53;15.85;;;7.00;;
78402;SDS011;67687;43.508;1.504;2024-03-22T09:19:19;13.93;;;7.05;;
78402;SDS011;67687;43.508;1.504;2024-03-22T09:21:45;13.77;;;7.00;;
78402;SDS011;67687;43.508;1.504;2024-03-22T09:24:12;14.35;;;7.25;;
78402;SDS011;67687;43.508;1.504;2024-03-22T09:26:38;14.27;;;6.82;;
78402;SDS011;67687;43.508;1.504;2024-03-22T09:29:04;16.53;;;7.13;;
78402;SDS011;67687;43.508;1.504;2024-03-22T09:31:32;13.65;;;7.57;;
78402;SDS011;67687;43.508;1.504;2024-03-22T09:33:59;12.82;;;6.97;;
78402;SDS011;67687;43.508;1.504;2024-03-22T09:36:24;14.80;;;7.47;;
78402;SDS011;67687;43.508;1.504;2024-03-22T09:38:51;12.77;;;7.38;;
78402;SDS011;67687;43.508;1.504;2024-03-22T09:41:17;15.45;;;7.75;;
78402;SDS011;67687;43.508;1.504;2024-03-22T09:43:45;13.60;;;6.63;;
78402;SDS011;67687;43.508;1.504;2024-03-22T09:46:12;16.75;;;7.15;;
78402;SDS011;67687;43.508;1.504;2024-03-22T09:48:41;14.68;;;7.40;;
78402;SDS011;67687;43.508;1.504;2024-03-22T09:51:07;15.00;;;6.75;;
78402;SDS011;67687;43.508;1.504;2024-03-22T09:53:34;13.55;;;6.43;;
78402;SDS011;67687;43.508;1.504;2024-03-22T09:56:00;14.00;;;6.37;;
78402;SDS011;67687;43.508;1.504;2024-03-22T09:58:27;12.43;;;6.25;;
78402;SDS011;67687;43.508;1.504;2024-03-22T10:00:53;14.65;;;6.78;;
78402;SDS011;67687;43.508;1.504;2024-03-22T10:03:25;13.27;;;6.07;;
78402;SDS011;67687;43.508;1.504;2024-03-22T10:05:52;15.63;;;7.00;;
78402;SDS011;67687;43.508;1.504;2024-03-22T10:08:19;12.63;;;6.63;;
78402;SDS011;67687;43.508;1.504;2024-03-22T10:10:46;14.75;;;6.60;;
78402;SDS011;67687;43.508;1.504;2024-03-22T10:13:12;11.68;;;6.00;;
78402;SDS011;67687;43.508;1.504;2024-03-22T10:15:38;14.23;;;6.67;;
78402;SDS011;67687;43.508;1.504;2024-03-22T10:18:05;13.57;;;6.32;;
78402;SDS011;67687;43.508;1.504;2024-03-22T10:20:30;14.43;;;6.40;;
78402;SDS011;67687;43.508;1.504;2024-03-22T10:22:59;15.85;;;7.38;;
78402;SDS011;67687;43.508;1.504;2024-03-22T10:25:25;13.70;;;6.80;;
78402;SDS011;67687;43.508;1.504;2024-03-22T10:27:53;13.02;;;7.13;;
78402;SDS011;67687;43.508;1.504;2024-03-22T10:30:19;16.65;;;7.35;;
78402;SDS011;67687;43.508;1.504;2024-03-22T10:32:46;16.75;;;7.13;;
78402;SDS011;67687;43.508;1.504;2024-03-22T10:35:12;14.17;;;7.20;;
78402;SDS011;67687;43.508;1.504;2024-03-22T10:37:39;15.17;;;6.63;;
78402;SDS011;67687;43.508;1.504;2024-03-22T10:40:08;14.60;;;6.70;;
78402;SDS011;67687;43.508;1.504;2024-03-22T10:42:35;15.38;;;6.57;;
78402;SDS011;67687;43.508;1.504;2024-03-22T10:45:01;13.80;;;6.95;;
78402;SDS011;67687;43.508;1.504;2024-03-22T10:47:29;16.38;;;7.60;;
78402;SDS011;67687;43.508;1.504;2024-03-22T10:49:56;12.97;;;6.93;;
78402;SDS011;67687;43.508;1.504;2024-03-22T10:52:27;14.75;;;7.05;;
78402;SDS011;67687;43.508;1.504;2024-03-22T10:54:53;14.88;;;6.53;;
78402;SDS011;67687;43.508;1.504;2024-03-22T10:57:22;15.02;;;6.40;;
78402;SDS011;67687;43.508;1.504;2024-03-22T10:59:48;15.88;;;7.93;;
78402;SDS011;67687;43.508;1.504;2024-03-22T11:02:14;13.60;;;6.30;;
78402;SDS011;67687;43.508;1.504;2024-03-22T11:04:42;13.60;;;6.15;;
78402;SDS011;67687;43.508;1.504;2024-03-22T11:07:09;11.90;;;6.25;;
78402;SDS011;67687;43.508;1.504;2024-03-22T11:09:51;15.02;;;6.50;;
78402;SDS011;67687;43.508;1.504;2024-03-22T11:12:18;12.30;;;6.45;;
78402;SDS011;67687;43.508;1.504;2024-03-22T11:14:46;13.57;;;6.70;;
78402;SDS011;67687;43.508;1.504;2024-03-22T11:17:14;14.55;;;6.70;;
78402;SDS011;67687;43.508;1.504;2024-03-22T11:19:39;12.63;;;6.40;;
78402;SDS011;67687;43.508;1.504;2024-03-22T11:22:06;12.35;;;6.35;;
78402;SDS011;67687;43.508;1.504;2024-03-22T11:24:33;13.93;;;6.10;;
78402;SDS011;67687;43.508;1.504;2024-03-22T11:27:00;11.27;;;5.78;;
78402;SDS011;67687;43.508;1.504;2024-03-22T11:29:26;16.25;;;6.15;;
78402;SDS011;67687;43.508;1.504;2024-03-22T11:31:54;11.07;;;6.20;;
78402;SDS011;67687;43.508;1.504;2024-03-22T11:34:20;12.48;;;5.47;;
78402;SDS011;67687;43.508;1.504;2024-03-22T11:36:46;11.70;;;6.05;;
78402;SDS011;67687;43.508;1.504;2024-03-22T11:39:14;9.90;;;5.40;;
78402;SDS011;67687;43.508;1.504;2024-03-22T11:41:43;12.45;;;6.32;;
78402;SDS011;67687;43.508;1.504;2024-03-22T11:44:09;12.63;;;5.93;;
78402;SDS011;67687;43.508;1.504;2024-03-22T11:46:36;13.90;;;5.90;;
78402;SDS011;67687;43.508;1.504;2024-03-22T11:49:04;12.43;;;6.07;;
78402;SDS011;67687;43.508;1.504;2024-03-22T11:51:31;9.95;;;5.82;;
78402;SDS011;67687;43.508;1.504;2024-03-22T11:53:56;13.07;;;5.97;;
78402;SDS011;67687;43.508;1.504;2024-03-22T11:56:24;10.50;;;5.13;;
78402;SDS011;67687;43.508;1.504;2024-03-22T11:58:57;14.00;;;5.38;;
78402;SDS011;67687;43.508;1.504;2024-03-22T12:01:24;13.38;;;5.05;;
78402;SDS011;67687;43.508;1.504;2024-03-22T12:03:50;9.83;;;4.73;;
78402;SDS011;67687;43.508;1.504;2024-03-22T12:06:19;9.10;;;4.50;;
78402;SDS011;67687;43.508;1.504;2024-03-22T12:08:45;12.65;;;5.72;;
78402;SDS011;67687;43.508;1.504;2024-03-22T12:11:12;11.05;;;5.82;;
78402;SDS011;67687;43.508;1.504;2024-03-22T12:13:39;10.15;;;5.45;;
78402;SDS011;67687;43.508;1.504;2024-03-22T12:16:06;8.87;;;5.07;;
78402;SDS011;67687;43.508;1.504;2024-03-22T12:18:32;10.50;;;5.32;;
78402;SDS011;67687;43.508;1.504;2024-03-22T12:20:59;10.10;;;5.40;;
78402;SDS011;67687;43.508;1.504;2024-03-22T12:23:26;10.90;;;5.30;;
78402;SDS011;67687;43.508;1.504;2024-03-22T12:25:53;12.20;;;5.33;;
78402;SDS011;67687;43.508;1.504;2024-03-22T12:28:20;11.15;;;5.22;;
78402;SDS011;67687;43.508;1.504;2024-03-22T12:30:47;12.52;;;5.35;;
78402;SDS011;67687;43.508;1.504;2024-03-22T12:33:13;12.18;;;5.10;;
78402;SDS011;67687;43.508;1.504;2024-03-22T12:35:40;10.53;;;4.47;;
78402;SDS011;67687;43.508;1.504;2024-03-22T12:38:06;11.43;;;4.50;;
78402;SDS011;67687;43.508;1.504;2024-03-22T12:40:37;9.63;;;4.45;;
78402;SDS011;67687;43.508;1.504;2024-03-22T12:43:03;10.10;;;4.10;;
78402;SDS011;67687;43.508;1.504;2024-03-22T12:45:30;9.00;;;3.95;;
78402;SDS011;67687;43.508;1.504;2024-03-22T12:47:55;7.80;;;4.13;;
78402;SDS011;67687;43.508;1.504;2024-03-22T12:50:22;7.88;;;4.03;;
78402;SDS011;67687;43.508;1.504;2024-03-22T12:52:48;10.33;;;4.30;;
78402;SDS011;67687;43.508;1.504;2024-03-22T12:55:14;12.02;;;4.53;;
78402;SDS011;67687;43.508;1.504;2024-03-22T12:57:41;11.73;;;4.45;;
78402;SDS011;67687;43.508;1.504;2024-03-22T13:00:09;8.32;;;4.15;;
78402;SDS011;67687;43.508;1.504;2024-03-22T13:02:38;10.03;;;4.20;;
78402;SDS011;67687;43.508;1.504;2024-03-22T13:05:05;7.78;;;3.63;;
78402;SDS011;67687;43.508;1.504;2024-03-22T13:07:32;9.45;;;4.35;;
78402;SDS011;67687;43.508;1.504;2024-03-22T13:09:58;9.90;;;4.15;;
78402;SDS011;67687;43.508;1.504;2024-03-22T13:12:25;10.73;;;4.13;;
78402;SDS011;67687;43.508;1.504;2024-03-22T13:14:53;10.00;;;4.43;;
78402;SDS011;67687;43.508;1.504;2024-03-22T13:17:20;9.93;;;4.20;;
78402;SDS011;67687;43.508;1.504;2024-03-22T13:19:46;11.35;;;4.10;;
78402;SDS011;67687;43.508;1.504;2024-03-22T13:22:12;10.87;;;4.30;;
78402;SDS011;67687;43.508;1.504;2024-03-22T13:24:41;10.25;;;3.85;;
78402;SDS011;67687;43.508;1.504;2024-03-22T13:27:06;9.23;;;3.90;;
78402;SDS011;67687;43.508;1.504;2024-03-22T13:29:34;8.85;;;3.88;;
78402;SDS011;67687;43.508;1.504;2024-03-22T13:32:01;12.70;;;4.40;;
78402;SDS011;67687;43.508;1.504;2024-03-22T13:34:28;11.15;;;3.92;;
78402;SDS011;67687;43.508;1.504;2024-03-22T13:36:53;7.63;;;3.47;;
78402;SDS011;67687;43.508;1.504;2024-03-22T13:39:20;9.63;;;3.40;;
78402;SDS011;67687;43.508;1.504;2024-03-22T13:41:46;9.32;;;3.80;;
78402;SDS011;67687;43.508;1.504;2024-03-22T13:44:12;9.70;;;3.40;;
78402;SDS011;67687;43.508;1.504;2024-03-22T13:46:38;6.77;;;3.53;;
78402;SDS011;67687;43.508;1.504;2024-03-22T13:49:13;11.57;;;4.20;;
78402;SDS011;67687;43.508;1.504;2024-03-22T13:51:40;8.20;;;3.72;;
78402;SDS011;67687;43.508;1.504;2024-03-22T13:54:07;11.27;;;3.90;;
78402;SDS011;67687;43.508;1.504;2024-03-22T13:56:33;9.32;;;3.95;;
78402;SDS011;67687;43.508;1.504;2024-03-22T13:58:59;9.27;;;3.90;;
78402;SDS011;67687;43.508;1.504;2024-03-22T14:01:25;12.23;;;3.93;;
78402;SDS011;67687;43.508;1.504;2024-03-22T14:03:52;10.70;;;3.95;;
78402;SDS011;67687;43.508;1.504;2024-03-22T14:06:19;9.15;;;4.10;;
78402;SDS011;67687;43.508;1.504;2024-03-22T14:08:46;11.47;;;3.77;;
78402;SDS011;67687;43.508;1.504;2024-03-22T14:11:11;11.50;;;4.15;;
78402;SDS011;67687;43.508;1.504;2024-03-22T14:13:38;10.00;;;3.92;;
78402;SDS011;67687;43.508;1.504;2024-03-22T14:16:04;10.13;;;3.90;;
78402;SDS011;67687;43.508;1.504;2024-03-22T14:18:32;11.05;;;4.63;;
78402;SDS011;67687;43.508;1.504;2024-03-22T14:20:58;13.20;;;3.72;;
78402;SDS011;67687;43.508;1.504;2024-03-22T14:23:26;10.80;;;3.37;;
78402;SDS011;67687;43.508;1.504;2024-03-22T14:25:51;9.88;;;3.42;;
78402;SDS011;67687;43.508;1.504;2024-03-22T14:28:18;10.85;;;4.00;;
78402;SDS011;67687;43.508;1.504;2024-03-22T14:30:44;9.30;;;3.60;;
78402;SDS011;67687;43.508;1.504;2024-03-22T14:33:10;11.27;;;4.50;;